Flight Track Log - Related Links

Times and Time Zones

All times are in EDT time to prevent confusion due to time zone crossing. See the N931ED flight status page for this flight to view local times or setup timezone preferences in your user account.

Time Position Orientation Groundspeed Altitude Reporting Facility
EDT Latitude Longitude Course Direction KTS MPH feet Rate Location/Type
Wed 07:36:23 PM 46.9367 -114.1456 275° West 196 226 6,000  Level Salt Lake Center
Wed 07:37:25 PM 46.9419 -114.2392 275° West 230 265 9,800 3,659 Climbing Salt Lake Center
Wed 07:38:26 PM 46.9414 -114.3497 270° West 266 306 13,500 3,756 Climbing Salt Lake Center
Wed 07:39:28 PM 46.9453 -114.4806 273° West 298 343 17,500 3,290 Climbing Salt Lake Center
Wed 07:40:30 PM 46.9511 -114.5878 275° West 308 354 20,300 3,057 Climbing Salt Lake Center
Wed 07:41:14 PM 46.9533 -114.6931 272° West 314 361 22,900 3,143 Climbing Seattle Center
Wed 07:42:15 PM 46.9569 -114.8236 272° West 320 368 25,800 2,656 Climbing Seattle Center
Wed 07:43:16 PM 46.9625 -114.9633 273° West 337 388 28,300 2,705 Climbing Seattle Center
Wed 07:44:17 PM 46.9678 -115.1083 273° West 352 405 31,300 2,311 Climbing Seattle Center
Wed 07:45:18 PM 46.9733 -115.2542 273° West 358 412 33,000 1,770 Climbing Seattle Center
Wed 07:46:19 PM 46.9792 -115.4214 273° West 375 432 34,900 1,672 Climbing Seattle Center
Wed 07:47:20 PM 46.9839 -115.5753 273° West 379 436 36,400 1,426 Climbing Seattle Center
Wed 07:48:21 PM 46.9881 -115.7292 272° West 379 436 37,800 1,230 Climbing Seattle Center
Wed 07:49:22 PM 46.9919 -115.8850 272° West 381 438 38,900 1,033 Climbing Seattle Center
Wed 07:50:23 PM 46.9969 -116.0394 273° West 381 438 39,900 984 Climbing Seattle Center
Wed 07:51:24 PM 46.9997 -116.1956 272° West 383 441 40,900 984 Climbing Seattle Center
Wed 07:52:25 PM 47.0039 -116.3511 272° West 383 441 41,900 1,033 Climbing Seattle Center
Wed 07:53:26 PM 47.0078 -116.5378 272° West 382 440 43,000 541 Climbing Seattle Center
Wed 07:54:27 PM 47.0108 -116.6942 272° West 382 440 43,000  Level Seattle Center
Wed 07:55:28 PM 47.0136 -116.8594 271° West 395 455 43,000  Level Seattle Center
Wed 07:56:29 PM 47.0172 -117.0281 272° West 407 468 43,000  Level Seattle Center
Wed 07:57:30 PM 47.0194 -117.1958 271° West 411 473 43,000  Level Seattle Center
Wed 07:58:31 PM 47.0231 -117.3656 272° West 414 476 43,000  Level Seattle Center
Wed 07:59:32 PM 47.0244 -117.5319 271° West 410 472 43,000  Level Seattle Center
Wed 08:00:33 PM 47.0275 -117.6975 272° West 406 467 43,000  Level Seattle Center
Wed 08:01:34 PM 47.0286 -117.8606 271° West 402 463 43,000  Level Seattle Center
Wed 08:02:35 PM 47.0300 -118.0228 271° West 399 459 43,000  Level Seattle Center
Wed 08:03:36 PM 47.0308 -118.1850 270° West 398 458 43,000  Level Seattle Center
Wed 08:04:37 PM 47.0317 -118.3481 270° West 400 460 43,000  Level Seattle Center
Wed 08:05:38 PM 47.0325 -118.5097 270° West 398 458 43,000  Level Seattle Center
Wed 08:06:39 PM 47.0331 -118.6722 270° West 398 458 43,000  Level Seattle Center
Wed 08:07:40 PM 47.0322 -118.8333 270° West 398 458 43,000  Level Seattle Center
Wed 08:08:41 PM 47.0336 -118.9964 271° West 399 459 43,000 -443 Level Seattle Center
Wed 08:09:42 PM 47.0325 -119.1908 270° West 399 459 42,100 -1,623 Descending Seattle Center
Wed 08:10:43 PM 47.0325 -119.3600 270° West 409 471 39,700 -2,410 Descending Seattle Center
Wed 08:11:44 PM 47.0314 -119.5289 270° West 414 476 37,200 -2,479 Descending Seattle Center
Wed 08:12:44 PM 47.0311 -119.6981 270° West 415 478 34,700 -2,479 Descending Seattle Center
Wed 08:13:45 PM 47.0300 -119.8611 269° West 408 470 32,200 -2,459 Descending Seattle Center
Wed 08:14:46 PM 47.0272 -120.0222 269° West 400 460 29,700 -2,311 Descending Seattle Center
Wed 08:15:47 PM 47.0261 -120.1658 269° West 387 445 27,500 -2,262 Descending Seattle Center
Wed 08:16:48 PM 47.0250 -120.3203 269° West 381 438 25,100 -1,721 Descending Seattle Center
Wed 08:17:49 PM 47.0236 -120.5042 269° West 379 436 24,000 -787 Descending Seattle Center
Wed 08:18:50 PM 47.0319 -120.6425 275° West 386 444 23,500 -1,131 Descending Seattle Center
Wed 08:19:51 PM 47.0408 -120.7914 275° West 376 433 21,700 -1,918 Descending Seattle Center
Wed 08:20:52 PM 47.0478 -120.9622 273° West 358 412 19,600 -2,410 Descending Seattle Center
Wed 08:21:53 PM 47.0553 -121.1039 274° West 352 405 16,800 -2,902 Descending Seattle Center
Wed 08:22:54 PM 47.0614 -121.2417 274° West 349 402 13,700 -2,892 Descending Seattle Center
Wed 08:24:12 PM 47.0692 -121.4056 274° West 301 346 10,100 -2,037 Descending Seattle Center
Wed 08:24:43 PM 47.0728 -121.4692 275° West 280 322 10,000 -136 Descending Seattle Center
Wed 08:24:56 PM 47.0739 -121.4939 274° West 285 328 10,000  Level Seattle Center
Wed 08:25:43 PM 47.0789 -121.5864 275° West 285 328 10,000  Level Seattle Center
Wed 08:25:57 PM 47.0817 -121.6122 279° West 291 335 10,000 -98 Level Seattle Center
Wed 08:26:44 PM 47.0892 -121.7014 277° West 287 330 9,900  Descending Seattle Center
Wed 08:26:58 PM 47.0922 -121.7267 280° West 285 328 10,000 -109 Climbing Seattle Center
Wed 08:27:39 PM 47.0981 -121.8042 276° West 277 319 9,800 -590 Descending Seattle Center
Wed 08:27:59 PM 47.0997 -121.8375 274° West 275 316 9,400 -1,082 Descending Seattle Center
Wed 08:28:40 PM 47.1058 -121.9108 277° West 261 300 8,700 -1,082 Descending Seattle Center
Wed 08:29:00 PM 47.1086 -121.9492 276° West 259 298 8,300 -1,180 Descending Seattle Center
Wed 08:29:41 PM 47.1139 -122.0108 277° West 245 282 7,500 -1,377 Descending Seattle Center
Wed 08:30:01 PM 47.1161 -122.0514 275° West 255 293 6,900 -1,672 Descending Seattle Center
Wed 08:30:42 PM 47.1228 -122.1233 278° West 261 300 5,800 -1,548 Descending Seattle Center
Wed 08:31:03 PM 47.1253 -122.1561 276° West 259 298 5,300 -1,600 Descending Seattle Center
Wed 08:31:42 PM 47.1314 -122.2261 277° West 252 290 4,200 -1,279 Descending Seattle Center
Wed 08:32:04 PM 47.1344 -122.2558 279° West 249 287 4,000 -98 Descending Seattle Center
Wed 08:32:43 PM 47.1375 -122.3203 274° West 227 261 4,100  Climbing Seattle Center
Wed 08:33:05 PM 47.1394 -122.3494 276° West 234 269 4,000 -295 Descending Seattle Center
Wed 08:33:44 PM 47.1442 -122.4242 275° West 267 307 3,800 -393 Descending Seattle Center
Wed 08:34:06 PM 47.1458 -122.4650 273° West 261 300 3,600 -295 Descending Seattle Center
Wed 08:34:45 PM 47.1525 -122.5272 279° West 245 282 3,500 -197 Descending Seattle Center
Wed 08:35:07 PM 47.1561 -122.5600 279° West 239 275 3,400 -358 Descending Seattle Center
Wed 08:35:52 PM 47.1639 -122.6347 279° West 231 266 3,100 -393 Descending Seattle Center
Wed 08:36:08 PM 47.1661 -122.6542 280° West 234 269 3,000 -98 Descending Seattle Center
Wed 08:36:53 PM 47.1719 -122.7281 277° West 233 268 3,000  Level Seattle Center
Wed 08:37:09 PM 47.1731 -122.7467 275° West 230 265 3,000  Level Seattle Center
Wed 08:37:54 PM 47.1778 -122.8131 276° West 212 244 3,000  Level Seattle Center
Wed 08:38:10 PM 47.1711 -122.8361 247° West 216 249 3,000 -100 Level Seattle Center
Wed 08:38:54 PM 47.1311 -122.8575 200° South 223 257 2,900 -295 Descending Seattle Center
Wed 08:39:11 PM 47.1128 -122.8619 189° South 223 257 2,700 -590 Descending Seattle Center
Wed 08:39:55 PM 47.0697 -122.8775 194° South 226 260 2,300 -689 Descending Seattle Center
Wed 08:40:12 PM 47.0536 -122.8792 184° South 216 249 2,000 -1,075 Descending Seattle Center
Wed 08:41:02 PM 47.0178 -122.8922 194° South 141 162 1,100 -984 Descending Seattle Center
Wed 08:41:13 PM 47.0119 -122.8908 171° South 152 175 1,000 -333 Descending Seattle Center
Wed 08:42:14 PM 46.9792 -122.9006 191° South 140 161 700 -295 Descending Seattle Center

Login

Don't have an account? Register now (free) for customized features, flight alerts, and more!